Time;durP1;ratioP1;P1;durP2;ratioP2;P2;SDS_P1;SDS_P2;PMS_P1;PMS_P2;Temp;Humidity;BMP_temperature;BMP_pressure;BME280_temperature;BME280_humidity;BME280_pressure;Samples;Min_cycle;Max_cycle;Signal;HPM_P1;HPM_P2
2022/09/03 00:04:46;;;;;;;2.77;1.90;;;18.30;62.30;;;;;;10482024;28;20824;-70
2022/09/03 00:09:52;;;;;;;3.97;2.00;;;18.20;62.50;;;;;;10481785;28;20229;-69
2022/09/03 00:15:04;;;;;;;4.57;1.93;;;18.20;63.50;;;;;;10477221;28;20231;-70
2022/09/03 00:20:26;;;;;;;3.13;1.77;;;18.10;63.00;;;;;;10466962;28;20246;-70
2022/09/03 00:25:38;;;;;;;3.17;2.13;;;18.10;63.10;;;;;;10494327;28;20234;-70
2022/09/03 00:30:41;;;;;;;4.13;1.50;;;18.10;63.40;;;;;;10476779;28;20723;-70
2022/09/03 00:35:54;;;;;;;3.93;1.20;;;18.00;63.70;;;;;;10475297;28;20214;-70
2022/09/03 00:41:13;;;;;;;3.90;1.20;;;18.00;64.10;;;;;;10480218;28;20717;-70
2022/09/03 00:46:40;;;;;;;2.00;1.20;;;17.90;64.30;;;;;;10467795;28;20238;-70
2022/09/03 00:51:52;;;;;;;1.37;1.27;;;17.90;64.40;;;;;;10473048;28;20232;-71
2022/09/03 00:57:17;;;;;;;1.77;1.03;;;17.80;64.90;;;;;;10471404;28;20257;-71
2022/09/03 01:02:37;;;;;;;2.67;1.27;;;17.90;65.00;;;;;;10465247;28;20285;-70
2022/09/03 01:08:07;;;;;;;4.37;1.20;;;17.90;64.90;;;;;;10470381;28;20290;-70
2022/09/03 01:13:20;;;;;;;3.33;1.00;;;17.90;65.00;;;;;;10461941;28;20256;-71
2022/09/03 01:18:39;;;;;;;2.33;1.20;;;17.90;64.90;;;;;;10470537;28;20227;-71
2022/09/03 01:23:39;;;;;;;2.90;1.13;;;18.00;64.80;;;;;;10472571;28;20230;-70
2022/09/03 01:29:10;;;;;;;1.63;1.17;;;18.00;64.60;;;;;;10474273;28;20312;-70
2022/09/03 01:34:35;;;;;;;1.20;0.93;;;18.10;64.60;;;;;;10478538;28;20230;-70
2022/09/03 01:39:50;;;;;;;3.10;1.23;;;18.10;64.60;;;;;;10471392;28;20222;-70
2022/09/03 01:45:23;;;;;;;2.20;1.40;;;18.10;64.80;;;;;;10474466;28;20228;-71
2022/09/03 01:51:18;;;;;;;4.03;1.15;;;18.00;65.10;;;;;;10351915;28;3285014;-70
2022/09/03 01:56:35;;;;;;;3.53;1.57;;;18.00;65.40;;;;;;10459398;28;20220;-71
2022/09/03 02:01:45;;;;;;;4.33;1.63;;;18.00;65.70;;;;;;10473749;28;20260;-71
2022/09/03 02:06:47;;;;;;;3.80;1.50;;;18.00;65.80;;;;;;10471605;28;20226;-71
2022/09/03 02:12:02;;;;;;;2.07;1.20;;;18.00;65.90;;;;;;10474724;28;20582;-70
2022/09/03 02:17:05;;;;;;;1.87;1.40;;;18.00;66.00;;;;;;10469748;28;20225;-71
2022/09/03 02:22:06;;;;;;;2.03;1.40;;;18.10;66.00;;;;;;10474895;28;20264;-70
2022/09/03 02:27:06;;;;;;;2.40;1.60;;;18.10;66.00;;;;;;10469204;28;20222;-70
2022/09/03 02:32:07;;;;;;;5.60;1.10;;;18.10;66.10;;;;;;10476390;28;20728;-70
2022/09/03 02:37:16;;;;;;;3.03;1.17;;;18.20;66.20;;;;;;10469035;28;20223;-70
2022/09/03 02:42:18;;;;;;;1.03;0.90;;;18.10;66.40;;;;;;10472855;28;20293;-70
2022/09/03 02:47:19;;;;;;;3.50;1.23;;;18.20;66.50;;;;;;10468658;28;20653;-70
2022/09/03 02:52:20;;;;;;;1.77;1.10;;;18.20;66.50;;;;;;10471731;28;20241;-71
2022/09/03 02:57:20;;;;;;;3.53;1.40;;;18.20;66.70;;;;;;10464071;28;20701;-70
2022/09/03 03:02:21;;;;;;;2.13;1.30;;;18.20;67.00;;;;;;10473068;28;20755;-70
2022/09/03 03:07:21;;;;;;;1.50;1.17;;;18.10;67.10;;;;;;10470071;28;20431;-71
2022/09/03 03:12:22;;;;;;;1.97;1.17;;;18.10;67.30;;;;;;10470051;28;20229;-71
2022/09/03 03:17:23;;;;;;;1.73;1.07;;;18.10;67.50;;;;;;10466844;28;20216;-71
2022/09/03 03:22:23;;;;;;;4.07;1.17;;;18.10;67.60;;;;;;10462915;28;20232;-70
2022/09/03 03:27:24;;;;;;;4.17;1.50;;;18.10;67.60;;;;;;10472338;28;20249;-71
2022/09/03 03:32:25;;;;;;;1.37;1.20;;;18.20;67.80;;;;;;10474966;28;20218;-70
2022/09/03 03:37:26;;;;;;;3.10;1.00;;;18.10;68.00;;;;;;10474426;28;20218;-71
2022/09/03 03:42:27;;;;;;;0.80;0.80;;;18.10;68.30;;;;;;10469971;28;20230;-70
2022/09/03 03:47:30;;;;;;;7.87;1.27;;;18.10;68.50;;;;;;10471636;28;20311;-70
2022/09/03 03:52:31;;;;;;;2.53;1.00;;;18.10;68.70;;;;;;10466189;28;20223;-70
2022/09/03 03:57:32;;;;;;;2.23;1.20;;;18.10;69.10;;;;;;10470129;28;20264;-71
2022/09/03 04:02:33;;;;;;;4.10;1.10;;;18.00;69.40;;;;;;10466235;28;20321;-71
2022/09/03 04:07:33;;;;;;;2.90;1.30;;;18.00;69.60;;;;;;10470475;28;20586;-71
2022/09/03 04:12:34;;;;;;;1.83;1.10;;;18.00;70.00;;;;;;10469583;28;20308;-71
2022/09/03 04:17:34;;;;;;;2.53;1.23;;;18.00;70.50;;;;;;10470525;28;20223;-71
2022/09/03 04:22:35;;;;;;;1.33;1.00;;;17.90;71.00;;;;;;10470080;28;20228;-71
2022/09/03 04:27:35;;;;;;;3.20;1.40;;;17.90;71.40;;;;;;10469717;28;20239;-71
2022/09/03 04:32:55;;;;;;;3.37;1.30;;;17.90;71.70;;;;;;10469666;28;20254;-71
2022/09/03 04:37:56;;;;;;;2.33;1.00;;;17.90;72.30;;;;;;10474440;28;20227;-71
2022/09/03 04:43:00;;;;;;;1.13;0.97;;;17.80;72.70;;;;;;10472866;28;20258;-71
2022/09/03 04:48:02;;;;;;;2.37;1.77;;;17.80;73.10;;;;;;10479478;28;20229;-70
2022/09/03 04:53:04;;;;;;;2.97;1.60;;;17.80;73.40;;;;;;10472092;28;20642;-70
2022/09/03 04:58:06;;;;;;;4.33;1.17;;;17.80;73.90;;;;;;10464381;28;20630;-70
2022/09/03 05:03:07;;;;;;;3.10;1.17;;;17.80;74.10;;;;;;10479888;28;20762;-70
2022/09/03 05:08:08;;;;;;;1.63;0.80;;;17.80;75.40;;;;;;10472081;28;20291;-70
2022/09/03 05:13:08;;;;;;;4.30;1.10;;;17.70;75.80;;;;;;10472607;28;20218;-70
2022/09/03 05:18:09;;;;;;;1.77;1.07;;;17.70;75.20;;;;;;10479681;28;20218;-71
2022/09/03 05:23:09;;;;;;;2.70;1.40;;;17.80;75.20;;;;;;10470366;28;20225;-70
2022/09/03 05:28:10;;;;;;;3.10;1.40;;;17.80;75.30;;;;;;10475055;28;20270;-71
2022/09/03 05:33:10;;;;;;;2.23;1.00;;;17.80;75.60;;;;;;10478456;28;20224;-71
2022/09/03 05:38:15;;;;;;;2.40;1.20;;;17.80;75.60;;;;;;10471232;28;20216;-70
2022/09/03 05:43:16;;;;;;;5.40;1.23;;;17.80;75.60;;;;;;10471754;28;20335;-71
2022/09/03 05:48:17;;;;;;;1.57;1.00;;;17.80;76.30;;;;;;10474651;28;20305;-71
2022/09/03 05:53:17;;;;;;;2.40;1.40;;;17.80;76.80;;;;;;10470647;28;20282;-69
2022/09/03 05:58:18;;;;;;;2.20;1.37;;;17.80;76.90;;;;;;10469128;28;20218;-69
2022/09/03 06:03:19;;;;;;;4.37;1.40;;;17.80;77.70;;;;;;10471648;28;20252;-70
2022/09/03 06:08:21;;;;;;;3.03;1.63;;;17.80;78.50;;;;;;10475992;28;20709;-70
2022/09/03 06:13:21;;;;;;;2.77;1.47;;;17.90;79.10;;;;;;10471823;28;20310;-70
2022/09/03 06:18:22;;;;;;;1.83;1.43;;;17.90;78.00;;;;;;10473114;28;20305;-69
2022/09/03 06:23:23;;;;;;;2.10;1.20;;;18.00;79.70;;;;;;10471336;28;20665;-70
2022/09/03 06:28:26;;;;;;;3.90;0.97;;;17.90;80.30;;;;;;10474847;28;20222;-70
2022/09/03 06:33:29;;;;;;;5.33;1.50;;;17.80;83.60;;;;;;10471103;28;20228;-69
2022/09/03 06:38:34;;;;;;;2.57;1.40;;;17.70;88.70;;;;;;10473624;28;20226;-70
2022/09/03 06:43:37;;;;;;;1.97;1.40;;;17.90;92.80;;;;;;10472342;28;20248;-70
2022/09/03 06:48:42;;;;;;;4.13;1.80;;;18.20;95.10;;;;;;10472233;28;20242;-71
2022/09/03 06:53:48;;;;;;;2.13;1.30;;;18.50;96.10;;;;;;10471671;28;20234;-71
2022/09/03 06:58:49;;;;;;;3.77;1.50;;;18.90;96.20;;;;;;10469432;28;20215;-69
2022/09/03 07:03:56;;;;;;;2.67;1.17;;;19.30;93.70;;;;;;10467510;28;20223;-69
2022/09/03 07:08:58;;;;;;;1.47;1.30;;;19.50;92.80;;;;;;10475486;28;20288;-71
2022/09/03 07:13:59;;;;;;;3.10;1.10;;;19.70;92.70;;;;;;10468128;28;20307;-70
2022/09/03 07:19:02;;;;;;;3.63;1.43;;;19.60;93.20;;;;;;10471531;28;20302;-70
2022/09/03 07:24:04;;;;;;;4.53;1.63;;;19.50;92.80;;;;;;10469754;28;20231;-70
2022/09/03 07:29:06;;;;;;;1.77;1.67;;;19.40;93.70;;;;;;10462577;28;20223;-70
2022/09/03 07:34:09;;;;;;;4.67;1.80;;;19.30;93.90;;;;;;10466556;28;20733;-70
2022/09/03 07:39:11;;;;;;;5.23;2.13;;;19.20;95.80;;;;;;10474481;28;20302;-70
2022/09/03 07:44:14;;;;;;;5.30;2.10;;;18.80;94.60;;;;;;10467462;28;20258;-70
2022/09/03 07:49:16;;;;;;;2.80;1.80;;;18.60;98.20;;;;;;10471705;28;20234;-70
2022/09/03 07:54:16;;;;;;;5.37;2.20;;;18.50;99.90;;;;;;10466883;28;20565;-71
2022/09/03 07:59:18;;;;;;;4.20;2.10;;;18.40;99.90;;;;;;10468562;28;20219;-71
2022/09/03 08:04:20;;;;;;;3.47;2.13;;;18.30;99.90;;;;;;10469567;28;20226;-71
2022/09/03 08:09:21;;;;;;;10.17;2.23;;;18.20;99.90;;;;;;10472119;28;20702;-70
2022/09/03 08:14:21;;;;;;;3.00;2.10;;;18.30;99.90;;;;;;10476538;28;20215;-70
2022/09/03 08:19:22;;;;;;;4.03;2.00;;;18.40;99.90;;;;;;10482305;28;20559;-70
2022/09/03 08:24:25;;;;;;;5.27;2.10;;;19.30;99.90;;;;;;10478936;28;20326;-70
2022/09/03 08:29:26;;;;;;;2.10;1.50;;;19.80;99.90;;;;;;10477253;28;20753;-70
2022/09/03 08:34:26;;;;;;;2.77;1.63;;;20.60;99.90;;;;;;10478430;28;20219;-71
2022/09/03 08:39:28;;;;;;;3.93;2.00;;;21.30;99.90;;;;;;10472987;28;20230;-71
2022/09/03 08:44:39;;;;;;;2.90;1.60;;;21.40;99.90;;;;;;10476065;28;20227;-71
2022/09/03 08:50:01;;;;;;;3.60;1.90;;;22.00;99.90;;;;;;10475928;28;20225;-71
2022/09/03 08:55:43;;;;;;;1.50;1.40;;;22.80;98.90;;;;;;10471551;28;20215;-71
2022/09/03 09:01:01;;;;;;;3.20;1.70;;;23.40;95.70;;;;;;10445982;28;20607;-71
2022/09/03 09:06:40;;;;;;;2.43;1.57;;;24.20;92.40;;;;;;10479689;28;20226;-71
2022/09/03 09:12:06;;;;;;;3.53;1.83;;;27.10;84.70;;;;;;10484240;28;20263;-70
2022/09/03 09:17:30;;;;;;;3.60;1.93;;;26.90;76.70;;;;;;10461180;28;20219;-70
2022/09/03 09:22:39;;;;;;;2.57;1.57;;;24.90;80.30;;;;;;10475185;28;20238;-71
2022/09/03 09:27:54;;;;;;;2.23;1.57;;;24.00;85.30;;;;;;10476370;28;20224;-72
2022/09/03 09:32:55;;;;;;;2.70;1.90;;;24.00;87.60;;;;;;10459685;28;20871;-70
2022/09/03 09:37:59;;;;;;;4.57;1.90;;;23.50;94.70;;;;;;10477965;28;20268;-71
2022/09/03 09:43:19;;;;;;;4.93;1.63;;;23.10;94.80;;;;;;10470878;28;20397;-71
2022/09/03 09:48:33;;;;;;;2.30;1.53;;;22.70;94.40;;;;;;10472935;28;20667;-70
2022/09/03 09:53:34;;;;;;;3.43;2.00;;;22.40;94.80;;;;;;10473745;28;20229;-71
2022/09/03 09:58:35;;;;;;;3.23;1.70;;;22.00;95.10;;;;;;10474371;28;20220;-71
2022/09/03 10:03:38;;;;;;;2.03;1.77;;;22.00;95.40;;;;;;10474429;28;20291;-71
2022/09/03 10:08:41;;;;;;;3.50;2.13;;;22.70;96.00;;;;;;10477865;28;20276;-71
2022/09/03 10:13:46;;;;;;;1.70;1.60;;;23.20;96.20;;;;;;10470710;28;20725;-71
2022/09/03 10:19:21;;;;;;;2.37;1.80;;;25.20;92.90;;;;;;10475166;28;20216;-71
2022/09/03 10:24:52;;;;;;;1.70;1.60;;;26.60;86.50;;;;;;10471098;28;20322;-71
2022/09/03 10:29:53;;;;;;;3.20;2.10;;;28.20;75.50;;;;;;10475649;28;20288;-71
2022/09/03 10:35:27;;;;;;;3.23;2.10;;;26.80;75.60;;;;;;10467920;28;20277;-71
2022/09/03 10:40:41;;;;;;;2.50;2.10;;;26.40;77.70;;;;;;10477777;28;20594;-70
2022/09/03 10:46:09;;;;;;;4.13;2.27;;;26.00;78.20;;;;;;10471023;28;20249;-71
2022/09/03 10:51:23;;;;;;;3.80;2.10;;;25.30;79.30;;;;;;10460748;28;20236;-70
2022/09/03 10:56:41;;;;;;;2.90;1.50;;;25.00;82.00;;;;;;10470568;28;20242;-70
2022/09/03 11:01:58;;;;;;;1.93;1.70;;;26.30;81.70;;;;;;10467953;28;20230;-70
2022/09/03 11:07:04;;;;;;;3.30;2.03;;;28.40;74.80;;;;;;10467758;28;20226;-70
2022/09/03 11:12:20;;;;;;;4.10;2.23;;;30.30;61.50;;;;;;10459005;28;20289;-71
2022/09/03 11:17:26;;;;;;;2.27;2.00;;;27.80;66.40;;;;;;10467570;28;20248;-71
2022/09/03 11:22:29;;;;;;;3.67;2.40;;;27.70;71.90;;;;;;10468605;28;20602;-71
2022/09/03 11:27:50;;;;;;;4.27;2.23;;;27.60;69.10;;;;;;10471455;28;20235;-71
2022/09/03 11:32:55;;;;;;;3.23;2.30;;;26.90;73.70;;;;;;10474713;28;20310;-71
2022/09/03 11:38:02;;;;;;;2.47;2.27;;;26.30;74.50;;;;;;10473831;28;20685;-71
2022/09/03 11:43:11;;;;;;;2.53;2.33;;;25.40;78.10;;;;;;10467003;28;20229;-71
2022/09/03 11:48:43;;;;;;;2.33;2.10;;;25.10;79.60;;;;;;10468807;28;20550;-71
2022/09/03 11:53:54;;;;;;;3.70;2.10;;;24.50;82.90;;;;;;10477721;28;20228;-71
2022/09/03 11:59:13;;;;;;;2.50;2.30;;;24.60;83.60;;;;;;10481520;28;20222;-71
2022/09/03 12:04:16;;;;;;;2.40;2.20;;;24.80;82.80;;;;;;10468586;28;20232;-71
2022/09/03 12:09:32;;;;;;;2.30;2.10;;;25.00;82.00;;;;;;10480650;28;20592;-71
2022/09/03 12:14:42;;;;;;;3.53;2.20;;;24.90;83.30;;;;;;10474101;28;20218;-70
2022/09/03 12:19:55;;;;;;;2.53;1.80;;;24.60;83.60;;;;;;10475367;28;20226;-70
2022/09/03 12:25:07;;;;;;;3.47;2.03;;;25.20;83.20;;;;;;10473783;28;20224;-71
2022/09/03 12:30:16;;;;;;;2.40;2.30;;;26.10;81.10;;;;;;10456408;28;20711;-71
2022/09/03 12:35:20;;;;;;;4.40;2.33;;;25.40;80.00;;;;;;10478551;28;20188;-71
2022/09/03 12:40:31;;;;;;;4.33;2.40;;;24.70;83.50;;;;;;10475444;28;20217;-71
2022/09/03 12:45:44;;;;;;;4.07;2.13;;;24.20;84.80;;;;;;10477440;28;20212;-71
2022/09/03 12:50:47;;;;;;;4.50;1.87;;;24.30;86.60;;;;;;10477912;28;20223;-71
2022/09/03 12:55:55;;;;;;;2.20;2.00;;;25.20;83.40;;;;;;10474279;28;20240;-71
2022/09/03 13:01:10;;;;;;;2.60;1.90;;;25.50;81.10;;;;;;10479188;28;20225;-71
2022/09/03 13:06:14;;;;;;;2.20;1.97;;;25.50;81.50;;;;;;10481312;28;20226;-72
2022/09/03 13:11:20;;;;;;;2.83;1.83;;;25.70;80.30;;;;;;10478333;28;20229;-72
2022/09/03 13:16:27;;;;;;;1.50;1.40;;;26.20;79.90;;;;;;10474132;28;20591;-71
2022/09/03 13:21:59;;;;;;;3.60;1.93;;;26.60;76.90;;;;;;10471952;28;20249;-72
2022/09/03 13:27:23;;;;;;;2.40;1.73;;;26.60;77.20;;;;;;10471780;28;20275;-70
2022/09/03 13:32:40;;;;;;;3.67;2.03;;;26.50;76.70;;;;;;10468038;28;20225;-71
2022/09/03 13:37:54;;;;;;;2.53;1.93;;;26.00;78.00;;;;;;10473950;28;20215;-71
2022/09/03 13:43:21;;;;;;;1.63;1.47;;;26.00;79.40;;;;;;10477228;28;20304;-71
2022/09/03 13:54:11;;;;;;;1.70;1.50;;;26.20;75.00;;;;;;10471428;28;20234;-71
2022/09/03 13:59:25;;;;;;;1.00;1.00;;;26.00;74.10;;;;;;10470899;28;20787;-71
2022/09/03 14:05:01;;;;;;;1.47;1.40;;;25.90;74.80;;;;;;10469618;28;20227;-71
2022/09/03 14:10:27;;;;;;;1.50;1.40;;;26.00;77.60;;;;;;10475657;28;20230;-70
2022/09/03 14:15:54;;;;;;;1.53;1.40;;;25.90;79.00;;;;;;10465904;28;20313;-71
2022/09/03 14:21:03;;;;;;;1.60;1.50;;;25.70;78.60;;;;;;10468196;28;20224;-70
2022/09/03 14:26:06;;;;;;;1.97;1.27;;;25.90;78.00;;;;;;10476199;28;20256;-71
2022/09/03 14:31:35;;;;;;;1.87;1.47;;;26.20;76.80;;;;;;10460461;28;20756;-70
2022/09/03 14:36:57;;;;;;;1.73;1.57;;;26.10;75.10;;;;;;10471800;28;20225;-71
2022/09/03 14:42:30;;;;;;;2.40;1.60;;;25.90;77.30;;;;;;10475434;28;20228;-71
2022/09/03 14:47:43;;;;;;;2.30;1.47;;;25.90;78.60;;;;;;10432042;28;20218;-72
2022/09/03 14:53:21;;;;;;;4.07;1.53;;;25.90;78.80;;;;;;10469116;28;20233;-70
2022/09/03 14:58:58;;;;;;;3.23;1.87;;;25.70;79.20;;;;;;10448697;28;20315;-71
2022/09/03 15:04:32;;;;;;;1.43;1.33;;;25.60;78.40;;;;;;10468676;28;20278;-71
2022/09/03 15:09:53;;;;;;;1.73;1.63;;;25.30;80.10;;;;;;10454585;28;20874;-71
2022/09/03 15:15:00;;;;;;;1.70;1.60;;;25.00;81.60;;;;;;10474261;28;20269;-71
2022/09/03 15:20:40;;;;;;;2.30;2.10;;;24.70;82.60;;;;;;10467762;28;20214;-71
2022/09/03 15:26:09;;;;;;;3.20;1.80;;;24.70;83.40;;;;;;10455804;28;20212;-71
2022/09/03 15:31:39;;;;;;;1.70;1.60;;;24.50;84.60;;;;;;10458814;28;20252;-71
2022/09/03 15:36:48;;;;;;;2.17;1.70;;;24.30;85.50;;;;;;10470220;28;20307;-70
2022/09/03 15:42:00;;;;;;;3.30;2.43;;;24.00;87.10;;;;;;10472603;28;20227;-73
2022/09/03 15:47:04;;;;;;;3.60;1.70;;;23.80;88.90;;;;;;10463912;28;20220;-71
2022/09/03 15:52:10;;;;;;;4.30;2.00;;;23.60;89.70;;;;;;10474121;28;20227;-71
2022/09/03 15:57:20;;;;;;;2.20;1.80;;;23.40;90.30;;;;;;10459242;28;20226;-70
2022/09/03 16:02:53;;;;;;;1.83;1.70;;;23.30;90.80;;;;;;10470566;28;20380;-71
2022/09/03 16:08:16;;;;;;;4.47;2.20;;;23.20;91.00;;;;;;10463824;28;20792;-70
2022/09/03 16:13:28;;;;;;;2.20;2.00;;;23.20;91.30;;;;;;10460489;28;20212;-70
2022/09/03 16:18:29;;;;;;;2.10;1.70;;;23.30;91.30;;;;;;10469050;28;20219;-71
2022/09/03 16:23:53;;;;;;;3.77;1.90;;;23.40;91.40;;;;;;10468020;28;20235;-71
2022/09/03 16:29:16;;;;;;;3.00;2.07;;;23.40;91.30;;;;;;10465291;28;20251;-71
2022/09/03 16:34:28;;;;;;;1.97;1.70;;;23.40;91.60;;;;;;10468255;28;20336;-70
2022/09/03 16:39:44;;;;;;;2.00;1.83;;;23.30;92.00;;;;;;10476796;28;20212;-71
2022/09/03 16:45:10;;;;;;;2.10;1.67;;;23.30;92.60;;;;;;10476438;28;20222;-70
2022/09/03 16:50:40;;;;;;;2.90;2.00;;;23.10;93.30;;;;;;10481262;28;20609;-70
2022/09/03 16:55:56;;;;;;;0.93;0.60;;;23.00;94.00;;;;;;10474471;28;20648;-71
2022/09/03 17:01:25;;;;;;;2.17;0.40;;;22.60;92.50;;;;;;10471494;28;20227;-70
2022/09/03 17:06:48;;;;;;;0.30;0.30;;;22.20;92.60;;;;;;10468300;28;20356;-71
2022/09/03 17:11:58;;;;;;;0.83;0.40;;;21.80;93.20;;;;;;10474153;28;20263;-71
2022/09/03 17:17:23;;;;;;;1.17;0.40;;;21.60;94.70;;;;;;10471989;28;20293;-70
2022/09/03 17:22:45;;;;;;;0.50;0.40;;;21.30;98.20;;;;;;10477696;28;20303;-71
2022/09/03 17:28:08;;;;;;;1.87;0.50;;;21.00;99.90;;;;;;10474286;28;20220;-70
2022/09/03 17:33:44;;;;;;;4.33;0.60;;;20.80;99.90;;;;;;10485986;28;20293;-70
2022/09/03 17:39:03;;;;;;;1.33;0.50;;;20.60;99.90;;;;;;10473755;28;20705;-70
2022/09/03 17:44:33;;;;;;;1.83;0.60;;;20.40;99.90;;;;;;10471703;28;20289;-70
2022/09/03 17:50:00;;;;;;;0.80;0.43;;;20.30;99.90;;;;;;10470689;28;20219;-70
2022/09/03 17:55:40;;;;;;;0.90;0.47;;;20.10;99.90;;;;;;10470307;28;20276;-70
2022/09/03 18:00:52;;;;;;;1.23;0.70;;;19.90;99.90;;;;;;10458253;28;20235;-70
2022/09/03 18:06:07;;;;;;;0.53;0.53;;;19.80;99.90;;;;;;10476680;28;20305;-70
2022/09/03 18:11:39;;;;;;;1.63;0.83;;;19.60;99.90;;;;;;10462037;28;20219;-70
2022/09/03 18:16:46;;;;;;;2.00;0.97;;;19.40;99.90;;;;;;10468616;28;20309;-70
2022/09/03 20:12:13;;;;;;;4.73;1.90;;;18.40;99.90;;;;;;10467210;28;20221;-70
2022/09/03 20:17:40;;;;;;;0.87;0.80;;;18.20;99.90;;;;;;10474433;28;20229;-70
2022/09/03 20:23:08;;;;;;;1.07;0.97;;;18.20;99.90;;;;;;10476776;28;20713;-70
2022/09/03 20:28:24;;;;;;;1.00;1.00;;;18.10;99.90;;;;;;10466479;28;20269;-70
2022/09/03 20:33:34;;;;;;;1.30;1.03;;;18.10;99.90;;;;;;10478952;28;20220;-71
2022/09/03 20:39:13;;;;;;;1.30;1.20;;;18.10;99.90;;;;;;10477381;28;20305;-71
2022/09/03 20:44:29;;;;;;;1.10;0.93;;;18.00;99.90;;;;;;10482483;28;20218;-70
2022/09/03 20:49:56;;;;;;;1.30;1.20;;;17.90;99.90;;;;;;10479871;28;20695;-70
2022/09/03 20:55:18;;;;;;;1.10;1.00;;;17.80;99.90;;;;;;10473849;28;20230;-70
2022/09/03 21:00:20;;;;;;;1.17;1.10;;;17.70;99.90;;;;;;10466246;28;20582;-70
2022/09/03 21:05:58;;;;;;;1.70;1.60;;;17.60;99.90;;;;;;10474133;28;20185;-70
2022/09/03 21:11:42;;;;;;;2.20;1.30;;;17.50;99.90;;;;;;10466119;28;20317;-70
2022/09/03 21:17:13;;;;;;;1.70;1.60;;;17.40;99.90;;;;;;10471919;28;20217;-70
2022/09/03 21:22:21;;;;;;;2.07;1.60;;;17.30;99.90;;;;;;10456376;28;20225;-70
2022/09/03 21:27:28;;;;;;;3.27;1.77;;;17.30;99.90;;;;;;10473919;28;20214;-70
2022/09/03 21:32:41;;;;;;;2.10;1.90;;;17.30;99.90;;;;;;10475977;28;20236;-70
2022/09/03 21:37:49;;;;;;;1.93;1.67;;;17.20;99.90;;;;;;10471721;28;20208;-71
2022/09/03 21:43:03;;;;;;;1.53;1.43;;;17.20;99.90;;;;;;10472884;28;20232;-71
2022/09/03 21:48:41;;;;;;;1.80;1.70;;;17.20;99.90;;;;;;10478465;28;20227;-71
2022/09/03 21:53:49;;;;;;;1.70;1.60;;;17.20;99.90;;;;;;10461453;28;20240;-71
2022/09/03 21:59:10;;;;;;;1.83;1.47;;;17.10;99.90;;;;;;10470665;28;20296;-71
2022/09/03 22:04:11;;;;;;;1.80;1.60;;;17.10;99.90;;;;;;10470624;28;20774;-70
2022/09/03 22:09:28;;;;;;;2.73;1.70;;;17.00;99.90;;;;;;10469501;28;20225;-70
2022/09/03 22:14:46;;;;;;;2.57;1.80;;;17.00;99.90;;;;;;10474752;28;20229;-71
2022/09/03 22:19:47;;;;;;;3.03;2.30;;;17.00;99.90;;;;;;10475556;28;20837;-71
2022/09/03 22:25:14;;;;;;;1.90;1.70;;;16.90;99.90;;;;;;10468957;28;20233;-70
2022/09/03 22:30:20;;;;;;;2.40;1.93;;;16.80;99.90;;;;;;10461842;28;20243;-70
2022/09/03 22:35:50;;;;;;;2.97;2.20;;;16.80;99.90;;;;;;10475397;28;20179;-69
2022/09/03 22:41:03;;;;;;;2.27;2.07;;;16.70;99.90;;;;;;10475053;28;20596;-70
2022/09/03 22:46:09;;;;;;;3.03;2.23;;;16.70;99.90;;;;;;10467460;28;20246;-70
2022/09/03 22:51:11;;;;;;;2.87;1.80;;;16.60;99.90;;;;;;10460844;28;20793;-70
2022/09/03 22:56:20;;;;;;;2.03;1.83;;;16.60;99.90;;;;;;10475641;28;20255;-70
2022/09/03 23:01:24;;;;;;;2.10;1.80;;;16.50;99.90;;;;;;10466235;28;20268;-70
2022/09/03 23:06:38;;;;;;;4.33;2.10;;;16.50;99.90;;;;;;10471304;28;20221;-70
2022/09/03 23:11:42;;;;;;;4.50;1.77;;;16.50;99.90;;;;;;10472261;28;20255;-70
2022/09/03 23:17:04;;;;;;;2.17;1.80;;;16.50;99.90;;;;;;10470360;28;20284;-71
2022/09/03 23:22:11;;;;;;;2.83;2.20;;;16.50;99.90;;;;;;10467157;28;20229;-70
2022/09/03 23:27:19;;;;;;;2.40;2.20;;;16.50;99.90;;;;;;10450118;28;20214;-70
2022/09/03 23:32:20;;;;;;;2.43;2.23;;;16.40;99.90;;;;;;10466993;28;20606;-70
2022/09/03 23:37:23;;;;;;;2.53;2.10;;;16.40;99.90;;;;;;10473481;28;20245;-71
2022/09/03 23:42:57;;;;;;;2.37;1.90;;;16.40;99.90;;;;;;10465259;28;20732;-71
2022/09/03 23:48:15;;;;;;;2.37;1.70;;;16.30;99.90;;;;;;10468094;28;20270;-71
2022/09/03 23:53:34;;;;;;;1.73;1.60;;;16.30;99.90;;;;;;10460176;28;20235;-70
2022/09/03 23:58:47;;;;;;;2.40;2.20;;;16.30;99.90;;;;;;10467353;28;20219;-70
